createdAt,value
2023-11-05T00:00:42.951Z,66.76
2023-11-05T00:03:05.958Z,66.50
2023-11-05T00:05:10.018Z,66.58
2023-11-05T00:07:12.754Z,66.53
2023-11-05T00:09:16.387Z,66.52
2023-11-05T00:11:18.937Z,66.70
2023-11-05T00:13:21.550Z,66.37
2023-11-05T00:15:24.404Z,66.58
2023-11-05T00:17:27.165Z,66.47
2023-11-05T00:19:29.926Z,66.37
2023-11-05T00:21:32.716Z,66.45
2023-11-05T00:23:35.426Z,66.28
2023-11-05T00:25:38.618Z,66.41
2023-11-05T00:27:41.248Z,66.33
2023-11-05T00:29:44.148Z,66.60
2023-11-05T00:31:46.992Z,66.62
2023-11-05T00:33:49.800Z,66.76
2023-11-05T00:35:52.897Z,66.68
2023-11-05T00:37:57.039Z,66.24
2023-11-05T00:40:03.340Z,66.36
2023-11-05T00:42:08.255Z,66.46
2023-11-05T00:44:12.790Z,66.38
2023-11-05T00:46:16.804Z,66.27
2023-11-05T00:48:19.500Z,66.30
2023-11-05T00:50:22.250Z,66.39
2023-11-05T00:52:24.912Z,66.63
2023-11-05T00:54:27.610Z,66.55
2023-11-05T00:56:30.492Z,66.34
2023-11-05T00:58:33.151Z,66.06
2023-11-05T01:00:36.266Z,66.19
2023-11-05T01:02:41.801Z,66.02
2023-11-05T01:04:45.425Z,65.69
2023-11-05T01:06:48.198Z,65.54
2023-11-05T01:08:52.051Z,65.47
2023-11-05T01:10:55.570Z,65.48
2023-11-05T01:12:58.669Z,65.47
2023-11-05T01:15:03.873Z,65.45
2023-11-05T01:17:06.689Z,65.24
2023-11-05T01:19:09.640Z,65.35
2023-11-05T01:21:13.949Z,65.41
2023-11-05T01:23:17.352Z,65.61
2023-11-05T01:25:23.179Z,65.54
2023-11-05T01:27:29.621Z,65.41
2023-11-05T01:29:32.414Z,65.35
2023-11-05T01:31:35.093Z,65.45
2023-11-05T01:33:37.817Z,65.31
2023-11-05T01:35:40.962Z,65.40
2023-11-05T01:37:43.962Z,65.32
2023-11-05T01:39:46.545Z,65.55
2023-11-05T01:41:49.157Z,65.47
2023-11-05T01:43:51.909Z,65.21
2023-11-05T01:45:54.723Z,65.24
2023-11-05T01:47:57.642Z,64.87
2023-11-05T01:50:00.734Z,64.75
2023-11-05T01:52:04.942Z,64.70
2023-11-05T01:54:09.413Z,64.81
2023-11-05T01:56:13.229Z,64.83
2023-11-05T01:58:17.271Z,64.74
2023-11-05T02:00:21.684Z,64.84
2023-11-05T02:02:25.696Z,65.04
2023-11-05T02:04:29.142Z,65.12
2023-11-05T02:06:32.036Z,65.10
2023-11-05T02:08:36.775Z,64.83
2023-11-05T02:10:39.955Z,64.90
2023-11-05T02:13:01.682Z,65.25
2023-11-05T02:15:06.251Z,65.26
2023-11-05T02:17:09.103Z,65.05
2023-11-05T02:19:12.155Z,64.99
2023-11-05T02:21:21.940Z,64.87
2023-11-05T02:23:25.827Z,64.74
2023-11-05T02:25:28.455Z,65.04
2023-11-05T02:27:31.796Z,64.99
2023-11-05T02:29:34.521Z,64.99
2023-11-05T02:31:37.191Z,64.82
2023-11-05T02:33:46.179Z,64.97
2023-11-05T02:35:49.511Z,64.67
2023-11-05T02:37:52.228Z,64.60
2023-11-05T02:39:55.624Z,64.28
2023-11-05T02:41:59.049Z,64.26
2023-11-05T02:44:02.169Z,64.30
2023-11-05T02:46:05.638Z,64.51
2023-11-05T02:48:08.528Z,64.17
2023-11-05T02:50:12.346Z,63.87
2023-11-05T02:52:15.391Z,63.93
2023-11-05T02:54:21.628Z,64.23
2023-11-05T02:56:25.015Z,64.20
2023-11-05T02:58:27.848Z,64.47
2023-11-05T03:00:32.122Z,64.03
2023-11-05T03:02:36.536Z,63.93
2023-11-05T03:04:39.438Z,64.14
2023-11-05T03:06:42.095Z,64.33
2023-11-05T03:08:45.217Z,64.25
2023-11-05T03:10:48.230Z,64.39
2023-11-05T03:12:51.088Z,63.89
2023-11-05T03:14:53.890Z,64.14
2023-11-05T03:16:58.094Z,64.06
2023-11-05T03:19:00.873Z,64.11
2023-11-05T03:21:07.580Z,64.19
2023-11-05T03:23:10.355Z,64.21
2023-11-05T03:25:14.255Z,64.15
2023-11-05T03:27:17.298Z,64.14
2023-11-05T03:29:22.383Z,64.07
2023-11-05T03:31:27.014Z,64.27
2023-11-05T03:33:29.808Z,64.28
2023-11-05T03:35:33.923Z,64.16
2023-11-05T03:37:37.721Z,64.08
2023-11-05T03:39:40.366Z,63.54
2023-11-05T03:41:43.043Z,63.48
2023-11-05T03:43:45.612Z,63.16
2023-11-05T03:45:48.219Z,63.26
2023-11-05T03:47:50.891Z,63.15
2023-11-05T03:49:54.719Z,63.13
2023-11-05T03:51:59.397Z,63.47
2023-11-05T03:54:02.318Z,63.36
2023-11-05T03:56:05.881Z,63.08
2023-11-05T03:58:08.899Z,62.86
2023-11-05T04:00:12.318Z,62.75
2023-11-05T04:02:15.022Z,62.45
2023-11-05T04:04:18.809Z,62.72
2023-11-05T04:06:21.918Z,62.57
2023-11-05T04:08:24.675Z,62.78
2023-11-05T04:10:27.571Z,62.69
2023-11-05T04:12:30.478Z,62.75
2023-11-05T04:14:33.421Z,63.02
2023-11-05T04:16:38.320Z,62.87
2023-11-05T04:18:42.337Z,62.85
2023-11-05T04:20:46.819Z,62.79
2023-11-05T04:22:49.566Z,62.96
2023-11-05T04:24:56.560Z,62.73
2023-11-05T04:26:59.228Z,62.66
2023-11-05T04:29:02.071Z,62.90
2023-11-05T04:31:05.047Z,63.03
2023-11-05T04:33:07.889Z,62.75
2023-11-05T04:35:11.012Z,62.74
2023-11-05T04:37:13.846Z,63.03
2023-11-05T04:39:16.477Z,62.91
2023-11-05T04:41:25.041Z,62.83
2023-11-05T04:43:27.976Z,62.54
2023-11-05T04:45:32.186Z,62.35
2023-11-05T04:47:34.797Z,62.55
2023-11-05T04:49:37.614Z,62.39
2023-11-05T04:51:43.827Z,62.63
2023-11-05T04:53:46.994Z,62.57
2023-11-05T04:55:49.644Z,63.02
2023-11-05T04:57:52.317Z,63.43
2023-11-05T04:59:54.986Z,63.38
2023-11-05T05:01:59.834Z,63.70
2023-11-05T05:04:02.771Z,63.67
2023-11-05T05:06:07.016Z,63.54
2023-11-05T05:08:10.161Z,63.54
2023-11-05T05:10:12.790Z,63.45
2023-11-05T05:12:15.362Z,63.72
2023-11-05T05:14:18.135Z,64.17
2023-11-05T05:16:21.160Z,64.31
2023-11-05T05:18:24.022Z,64.22
2023-11-05T05:20:27.094Z,64.34
2023-11-05T05:22:29.747Z,63.83
2023-11-05T05:24:32.463Z,63.72
2023-11-05T05:26:36.145Z,63.78
2023-11-05T05:28:39.150Z,63.86
2023-11-05T05:30:41.825Z,63.70
2023-11-05T05:32:44.384Z,63.82
2023-11-05T05:34:47.117Z,63.77
2023-11-05T05:36:49.800Z,64.12
2023-11-05T05:38:55.918Z,64.21
2023-11-05T05:40:58.682Z,64.15
2023-11-05T05:43:01.299Z,64.39
2023-11-05T05:45:04.881Z,64.37
2023-11-05T05:47:07.807Z,64.59
2023-11-05T05:49:10.579Z,64.67
2023-11-05T05:51:16.202Z,64.76
2023-11-05T05:53:18.921Z,64.91
2023-11-05T05:55:21.903Z,64.98
2023-11-05T05:57:25.767Z,65.07
2023-11-05T05:59:28.530Z,65.07
2023-11-05T06:01:31.254Z,65.05
2023-11-05T06:03:34.052Z,64.90
2023-11-05T06:05:36.930Z,64.97
2023-11-05T06:07:39.978Z,64.99
2023-11-05T06:09:43.776Z,64.63
2023-11-05T06:11:48.450Z,64.50
2023-11-05T06:13:50.986Z,64.39
2023-11-05T06:15:55.066Z,64.18
2023-11-05T06:17:58.656Z,64.23
2023-11-05T06:20:01.564Z,63.96
2023-11-05T06:22:04.255Z,63.89
2023-11-05T06:24:08.013Z,63.96
2023-11-05T06:26:10.743Z,63.70
2023-11-05T06:28:13.559Z,63.71
2023-11-05T06:30:16.605Z,63.54
2023-11-05T06:32:21.111Z,63.79
2023-11-05T06:34:24.286Z,63.66
2023-11-05T06:36:26.993Z,62.96
2023-11-05T06:38:30.358Z,62.83
2023-11-05T06:40:33.218Z,62.61
2023-11-05T06:42:36.643Z,62.67
2023-11-05T06:44:39.255Z,62.77
2023-11-05T06:46:41.969Z,62.99
2023-11-05T06:48:45.032Z,63.10
2023-11-05T06:50:53.084Z,62.94
2023-11-05T06:52:57.757Z,62.98
2023-11-05T06:55:00.608Z,62.96
2023-11-05T06:57:06.228Z,63.29
2023-11-05T06:59:16.761Z,63.16
2023-11-05T07:01:19.925Z,63.19
2023-11-05T07:03:25.828Z,63.01
2023-11-05T07:05:29.545Z,63.01
2023-11-05T07:07:33.154Z,62.94
2023-11-05T07:09:37.919Z,62.96
2023-11-05T07:11:41.607Z,62.76
2023-11-05T07:13:46.855Z,63.02
2023-11-05T07:15:49.621Z,62.87
2023-11-05T07:17:52.566Z,63.15
2023-11-05T07:19:55.190Z,62.92
2023-11-05T07:21:57.852Z,63.07
2023-11-05T07:24:01.001Z,62.79
2023-11-05T07:26:04.066Z,62.60
2023-11-05T07:28:09.798Z,62.65
2023-11-05T07:30:16.145Z,62.62
2023-11-05T07:32:19.150Z,62.34
2023-11-05T07:34:21.944Z,62.09
2023-11-05T07:36:25.920Z,62.28
2023-11-05T07:38:28.970Z,62.45
2023-11-05T07:40:32.252Z,62.47
2023-11-05T07:42:37.655Z,62.27
2023-11-05T07:44:41.439Z,62.29
2023-11-05T07:46:44.117Z,62.61
2023-11-05T07:48:47.589Z,62.69
2023-11-05T07:50:51.882Z,62.71
2023-11-05T07:52:54.703Z,62.46
2023-11-05T07:54:59.773Z,62.55
2023-11-05T07:57:02.678Z,62.51
2023-11-05T07:59:06.529Z,62.71
2023-11-05T08:01:09.390Z,62.68
2023-11-05T08:03:12.375Z,62.67
2023-11-05T08:05:16.129Z,62.84
2023-11-05T08:07:19.849Z,62.72
2023-11-05T08:09:22.967Z,62.83
2023-11-05T08:11:25.557Z,62.90
2023-11-05T08:13:28.278Z,62.70
2023-11-05T08:15:31.466Z,62.68
2023-11-05T08:17:35.005Z,62.75
2023-11-05T08:19:37.666Z,62.47
2023-11-05T08:21:41.068Z,62.53
2023-11-05T08:23:46.311Z,62.74
2023-11-05T08:25:49.845Z,62.70
2023-11-05T08:27:52.857Z,62.61
2023-11-05T08:29:55.598Z,62.54
2023-11-05T08:31:58.475Z,62.41
2023-11-05T08:34:01.206Z,62.27
2023-11-05T08:36:06.661Z,62.49
2023-11-05T08:38:09.284Z,62.66
2023-11-05T08:40:15.323Z,62.75
2023-11-05T08:42:19.577Z,62.89
2023-11-05T08:44:22.158Z,62.79
2023-11-05T08:46:24.857Z,62.84
2023-11-05T08:48:27.656Z,62.51
2023-11-05T08:50:30.395Z,62.86
2023-11-05T08:52:34.811Z,62.78
2023-11-05T08:54:37.527Z,63.05
2023-11-05T08:56:40.480Z,63.33
2023-11-05T08:58:43.108Z,63.18
2023-11-05T09:00:46.942Z,62.93
2023-11-05T09:02:51.762Z,63.02
2023-11-05T09:04:56.548Z,63.14
2023-11-05T09:07:00.790Z,63.00
2023-11-05T09:09:07.270Z,62.93
2023-11-05T09:11:10.544Z,62.95
2023-11-05T09:13:14.800Z,62.80
2023-11-05T09:15:18.580Z,62.95
2023-11-05T09:17:21.251Z,63.03
2023-11-05T09:19:24.459Z,63.20
2023-11-05T09:21:28.711Z,63.48
2023-11-05T09:23:31.705Z,63.36
2023-11-05T09:25:34.365Z,63.73
2023-11-05T09:27:40.544Z,63.89
2023-11-05T09:29:43.716Z,63.99
2023-11-05T09:31:49.386Z,63.94
2023-11-05T09:33:53.181Z,63.86
2023-11-05T09:35:55.981Z,63.71
2023-11-05T09:37:59.818Z,64.02
2023-11-05T09:40:04.571Z,64.03
2023-11-05T09:42:10.079Z,64.19
2023-11-05T09:44:12.817Z,64.32
2023-11-05T09:46:16.769Z,64.59
2023-11-05T09:48:21.432Z,64.80
2023-11-05T09:50:25.365Z,65.12
2023-11-05T09:52:30.099Z,65.33
2023-11-05T09:54:33.414Z,65.25
2023-11-05T09:56:36.103Z,65.54
2023-11-05T09:58:39.428Z,65.85
2023-11-05T10:00:42.217Z,65.99
2023-11-05T10:03:03.241Z,66.17
2023-11-05T10:05:06.930Z,66.17
2023-11-05T10:07:12.369Z,66.34
2023-11-05T10:09:17.470Z,66.68
2023-11-05T10:11:21.151Z,66.72
2023-11-05T10:13:27.964Z,66.65
2023-11-05T10:15:30.628Z,66.69
2023-11-05T10:17:33.229Z,66.88
2023-11-05T10:19:37.539Z,67.00
2023-11-05T10:21:41.411Z,66.99
2023-11-05T10:23:52.879Z,67.01
2023-11-05T10:25:56.660Z,67.25
2023-11-05T10:28:01.353Z,67.23
2023-11-05T10:30:06.017Z,67.29
2023-11-05T10:32:09.271Z,67.41
2023-11-05T10:34:13.661Z,67.42
2023-11-05T10:36:17.352Z,67.57
2023-11-05T10:38:20.807Z,67.57
2023-11-05T10:40:24.212Z,67.66
2023-11-05T10:42:28.404Z,67.54
2023-11-05T10:44:31.994Z,67.64
2023-11-05T10:46:36.931Z,67.92
2023-11-05T10:48:42.274Z,67.86
2023-11-05T10:50:48.995Z,67.83
2023-11-05T10:52:57.847Z,67.91
2023-11-05T10:55:08.313Z,68.16
2023-11-05T10:57:47.213Z,68.56
2023-11-05T10:59:49.825Z,68.61
2023-11-05T11:01:57.284Z,68.85
2023-11-05T11:04:16.439Z,68.70
2023-11-05T11:06:19.683Z,68.68
2023-11-05T11:08:24.120Z,68.96
2023-11-05T11:10:27.717Z,68.84
2023-11-05T11:12:35.009Z,68.90
2023-11-05T11:14:38.136Z,68.94
2023-11-05T11:16:44.115Z,68.82
2023-11-05T11:18:48.275Z,68.85
2023-11-05T11:20:57.176Z,68.71
2023-11-05T11:23:04.228Z,68.75
2023-11-05T11:25:08.326Z,68.94
2023-11-05T11:27:15.417Z,68.99
2023-11-05T11:29:19.177Z,68.93
2023-11-05T11:31:23.077Z,68.89
2023-11-05T11:33:29.150Z,68.94
2023-11-05T11:35:31.906Z,68.97
2023-11-05T11:37:38.329Z,68.91
2023-11-05T11:39:41.319Z,69.08
2023-11-05T11:41:46.639Z,68.89
2023-11-05T11:43:49.596Z,68.78
2023-11-05T11:45:53.329Z,68.98
2023-11-05T11:47:56.202Z,68.84
2023-11-05T11:50:13.239Z,69.22
2023-11-05T11:52:16.628Z,69.39
2023-11-05T11:54:19.836Z,69.20
2023-11-05T11:56:22.777Z,69.43
2023-11-05T11:58:25.916Z,69.40
2023-11-05T12:00:28.724Z,69.24
2023-11-05T12:02:31.584Z,69.16
2023-11-05T12:04:34.673Z,69.23
2023-11-05T12:06:44.389Z,69.25
2023-11-05T12:08:47.254Z,69.42
2023-11-05T12:10:49.986Z,69.38
2023-11-05T12:12:53.882Z,69.31
2023-11-05T12:14:56.584Z,69.36
2023-11-05T12:16:59.221Z,69.47
2023-11-05T12:19:04.412Z,69.31
2023-11-05T12:21:12.223Z,69.36
2023-11-05T12:23:17.066Z,69.18
2023-11-05T12:25:22.332Z,69.29
2023-11-05T12:27:25.051Z,69.49
2023-11-05T12:29:28.250Z,69.59
2023-11-05T12:31:32.149Z,69.66
2023-11-05T12:33:36.512Z,69.68
2023-11-05T12:35:39.296Z,69.79
2023-11-05T12:37:44.080Z,70.17
2023-11-05T12:39:47.174Z,70.19
2023-11-05T12:41:49.816Z,69.98
2023-11-05T12:43:52.495Z,70.21
2023-11-05T12:45:57.173Z,70.11
2023-11-05T12:48:00.948Z,69.94
2023-11-05T12:50:04.349Z,70.25
2023-11-05T12:52:07.122Z,70.23
2023-11-05T12:54:09.764Z,70.03
2023-11-05T12:56:14.890Z,70.19
2023-11-05T12:58:18.682Z,70.25
2023-11-05T13:00:21.421Z,70.14
2023-11-05T13:02:25.706Z,70.04
2023-11-05T13:04:29.933Z,70.07
2023-11-05T13:06:32.924Z,70.16
2023-11-05T13:08:36.001Z,70.13
2023-11-05T13:10:39.651Z,70.05
2023-11-05T13:12:44.342Z,70.26
2023-11-05T13:14:47.032Z,70.28
2023-11-05T13:16:50.315Z,70.39
2023-11-05T13:18:54.045Z,70.40
2023-11-05T13:20:57.002Z,70.52
2023-11-05T13:23:02.877Z,70.65
2023-11-05T13:25:07.876Z,70.97
2023-11-05T13:27:13.376Z,70.84
2023-11-05T13:29:17.183Z,70.82
2023-11-05T13:31:20.921Z,70.81
2023-11-05T13:33:24.324Z,70.77
2023-11-05T13:35:28.635Z,70.90
2023-11-05T13:37:33.443Z,70.99
2023-11-05T13:39:36.442Z,71.13
2023-11-05T13:41:39.209Z,71.15
2023-11-05T13:43:42.045Z,71.22
2023-11-05T13:45:45.545Z,71.25
2023-11-05T13:47:48.383Z,71.08
2023-11-05T13:49:51.828Z,71.35
2023-11-05T13:51:55.019Z,71.03
2023-11-05T13:53:58.913Z,71.10
2023-11-05T13:56:03.612Z,71.06
2023-11-05T13:58:06.297Z,71.24
2023-11-05T14:00:10.891Z,71.22
2023-11-05T14:02:15.936Z,71.43
2023-11-05T14:04:19.457Z,71.37
2023-11-05T14:06:22.469Z,71.45
2023-11-05T14:08:26.736Z,71.23
2023-11-05T14:10:30.726Z,71.14
2023-11-05T14:12:35.935Z,71.19
2023-11-05T14:14:39.540Z,71.22
2023-11-05T14:16:42.852Z,71.03
2023-11-05T14:18:45.597Z,70.94
2023-11-05T14:20:48.571Z,70.89
2023-11-05T14:22:51.897Z,70.95
2023-11-05T14:24:55.228Z,70.97
2023-11-05T14:26:57.908Z,70.97
2023-11-05T14:29:00.541Z,70.91
2023-11-05T14:31:03.396Z,70.89
2023-11-05T14:33:06.977Z,70.78
2023-11-05T14:35:12.399Z,70.92
2023-11-05T14:37:15.554Z,70.73
2023-11-05T14:39:21.396Z,70.82
2023-11-05T14:41:27.114Z,70.51
2023-11-05T14:43:29.864Z,70.68
2023-11-05T14:45:34.131Z,70.67
2023-11-05T14:47:37.477Z,70.65
2023-11-05T14:49:40.234Z,70.45
2023-11-05T14:51:44.667Z,70.15
2023-11-05T14:53:48.086Z,70.24
2023-11-05T14:55:51.201Z,70.27
2023-11-05T14:57:54.433Z,69.97
2023-11-05T14:59:57.645Z,70.03
2023-11-05T15:02:00.497Z,69.91
2023-11-05T15:04:05.055Z,69.89
2023-11-05T15:06:08.648Z,69.77
2023-11-05T15:08:11.677Z,69.81
2023-11-05T15:10:15.611Z,69.90
2023-11-05T15:12:23.761Z,69.81
2023-11-05T15:14:29.267Z,69.62
2023-11-05T15:16:32.531Z,69.41
2023-11-05T15:18:39.173Z,69.31
2023-11-05T15:20:44.982Z,69.28
2023-11-05T15:22:47.766Z,69.27
2023-11-05T15:24:51.150Z,69.22
2023-11-05T15:26:53.935Z,69.24
2023-11-05T15:28:57.949Z,69.30
2023-11-05T15:31:02.607Z,69.07
2023-11-05T15:33:07.305Z,69.16
2023-11-05T15:35:10.124Z,69.30
2023-11-05T15:37:14.377Z,69.30
2023-11-05T15:39:17.665Z,69.20
2023-11-05T15:41:23.596Z,68.98
2023-11-05T15:43:28.180Z,69.09
2023-11-05T15:45:32.425Z,68.94
2023-11-05T15:47:35.089Z,68.89
2023-11-05T15:49:41.149Z,68.80
2023-11-05T15:51:46.168Z,68.73
2023-11-05T15:53:48.912Z,68.85
2023-11-05T15:55:52.415Z,68.76
2023-11-05T15:57:55.071Z,68.62
2023-11-05T15:59:59.480Z,68.70
2023-11-05T16:02:02.929Z,68.74
2023-11-05T16:04:11.603Z,68.79
2023-11-05T16:06:14.958Z,68.79
2023-11-05T16:08:18.072Z,68.73
2023-11-05T16:10:21.438Z,68.86
2023-11-05T16:12:25.031Z,68.84
2023-11-05T16:14:30.889Z,69.00
2023-11-05T16:16:34.540Z,69.13
2023-11-05T16:18:37.887Z,69.09
2023-11-05T16:20:41.512Z,69.13
2023-11-05T16:22:46.777Z,69.22
2023-11-05T16:24:50.061Z,69.16
2023-11-05T16:26:52.793Z,69.04
2023-11-05T16:28:55.857Z,69.02
2023-11-05T16:30:59.791Z,69.21
2023-11-05T16:33:03.350Z,69.11
2023-11-05T16:35:08.448Z,68.94
2023-11-05T16:37:13.555Z,69.08
2023-11-05T16:39:19.902Z,69.36
2023-11-05T16:41:22.769Z,69.37
2023-11-05T16:43:26.247Z,69.61
2023-11-05T16:45:30.144Z,69.63
2023-11-05T16:47:33.843Z,70.02
2023-11-05T16:49:36.874Z,70.04
2023-11-05T16:51:44.745Z,70.29
2023-11-05T16:53:48.165Z,70.29
2023-11-05T16:55:51.542Z,70.58
2023-11-05T16:57:55.016Z,70.44
2023-11-05T16:59:57.689Z,70.37
2023-11-05T17:02:01.799Z,70.77
2023-11-05T17:04:06.608Z,70.74
2023-11-05T17:06:11.479Z,70.75
2023-11-05T17:08:15.048Z,70.92
2023-11-05T17:10:19.544Z,70.83
2023-11-05T17:12:23.725Z,71.01
2023-11-05T17:14:27.169Z,71.01
2023-11-05T17:16:33.297Z,70.89
2023-11-05T17:18:37.731Z,71.02
2023-11-05T17:20:40.656Z,71.01
2023-11-05T17:22:44.942Z,70.97
2023-11-05T17:24:48.006Z,70.71
2023-11-05T17:26:54.403Z,70.51
2023-11-05T17:28:58.274Z,70.38
2023-11-05T17:31:01.510Z,70.40
2023-11-05T17:33:07.827Z,70.44
2023-11-05T17:35:12.913Z,70.29
2023-11-05T17:37:17.902Z,70.45
2023-11-05T17:39:22.390Z,70.44
2023-11-05T17:41:25.537Z,70.26
2023-11-05T17:43:29.778Z,70.37
2023-11-05T17:45:35.216Z,70.25
2023-11-05T17:47:43.136Z,70.31
2023-11-05T17:49:48.624Z,70.33
2023-11-05T17:51:52.539Z,70.42
2023-11-05T17:53:56.322Z,70.46
2023-11-05T17:56:01.089Z,70.54
2023-11-05T17:58:05.313Z,70.43
2023-11-05T18:00:09.770Z,70.73
2023-11-05T18:02:12.543Z,70.60
2023-11-05T18:04:19.021Z,70.67
2023-11-05T18:06:24.662Z,70.68
2023-11-05T18:08:31.549Z,70.50
2023-11-05T18:10:46.923Z,70.56
2023-11-05T18:12:58.304Z,70.29
2023-11-05T18:15:06.014Z,70.45
2023-11-05T18:17:09.797Z,70.20
2023-11-05T18:19:13.492Z,70.33
2023-11-05T18:21:17.028Z,70.41
2023-11-05T18:23:20.778Z,70.55
2023-11-05T18:25:25.076Z,70.59
2023-11-05T18:27:28.386Z,70.64
2023-11-05T18:29:31.783Z,70.78
2023-11-05T18:31:36.000Z,70.57
2023-11-05T18:33:39.624Z,70.77
2023-11-05T18:35:45.180Z,71.04
2023-11-05T18:37:49.090Z,70.85
2023-11-05T18:39:54.382Z,70.95
2023-11-05T18:41:58.606Z,70.95
2023-11-05T18:44:02.420Z,70.91
2023-11-05T18:46:08.828Z,71.06
2023-11-05T18:48:16.074Z,71.10
2023-11-05T18:50:21.778Z,70.94
2023-11-05T18:52:26.885Z,70.93
2023-11-05T18:54:30.872Z,70.83
2023-11-05T18:56:37.150Z,70.96
2023-11-05T18:58:40.128Z,70.61
2023-11-05T19:00:44.984Z,70.53
2023-11-05T19:02:51.622Z,70.65
2023-11-05T19:04:55.342Z,70.75
2023-11-05T19:07:16.881Z,70.59
2023-11-05T19:09:20.826Z,70.64
2023-11-05T19:11:23.433Z,70.55
2023-11-05T19:13:29.119Z,70.28
2023-11-05T19:15:32.821Z,70.24
2023-11-05T19:17:36.518Z,70.00
2023-11-05T19:19:40.433Z,69.90
2023-11-05T19:21:44.690Z,69.75
2023-11-05T19:23:47.282Z,69.60
2023-11-05T19:25:51.626Z,69.53
2023-11-05T19:27:55.093Z,69.20
2023-11-05T19:29:57.836Z,69.22
2023-11-05T19:32:01.548Z,69.37
2023-11-05T19:34:05.884Z,68.88
2023-11-05T19:36:12.721Z,68.78
2023-11-05T19:38:17.526Z,68.56
2023-11-05T19:40:22.165Z,68.32
2023-11-05T19:42:28.476Z,68.02
2023-11-05T19:44:33.146Z,68.08
2023-11-05T19:46:36.645Z,68.25
2023-11-05T19:48:40.610Z,68.15
2023-11-05T19:50:45.862Z,67.72
2023-11-05T19:52:49.008Z,67.85
2023-11-05T19:54:53.228Z,67.81
2023-11-05T19:56:56.625Z,67.94
2023-11-05T19:59:01.776Z,67.64
2023-11-05T20:01:09.508Z,67.39
2023-11-05T20:03:24.589Z,67.14
2023-11-05T20:05:28.798Z,67.18
2023-11-05T20:07:35.301Z,67.21
2023-11-05T20:09:40.676Z,67.16
2023-11-05T20:11:44.726Z,67.28
2023-11-05T20:13:48.023Z,67.13
2023-11-05T20:15:52.495Z,66.84
2023-11-05T20:17:57.580Z,66.53
2023-11-05T20:20:01.627Z,66.86
2023-11-05T20:22:06.318Z,66.83
2023-11-05T20:24:10.252Z,66.78
2023-11-05T20:26:13.927Z,66.61
2023-11-05T20:28:17.206Z,66.62
2023-11-05T20:30:19.957Z,66.69
2023-11-05T20:32:22.732Z,66.87
2023-11-05T20:34:28.622Z,66.87
2023-11-05T20:36:33.898Z,66.66
2023-11-05T20:38:37.244Z,66.31
2023-11-05T20:40:45.498Z,66.52
2023-11-05T20:42:49.854Z,66.39
2023-11-05T20:44:53.326Z,66.32
2023-11-05T20:46:55.950Z,66.37
2023-11-05T20:49:04.288Z,66.40
2023-11-05T20:51:16.418Z,66.34
2023-11-05T20:53:19.124Z,66.32
2023-11-05T20:55:22.122Z,66.27
2023-11-05T20:57:28.364Z,66.27
2023-11-05T20:59:30.980Z,66.24
2023-11-05T21:01:35.314Z,66.51
2023-11-05T21:03:39.904Z,66.56
2023-11-05T21:05:43.918Z,66.43
2023-11-05T21:07:47.533Z,66.27
2023-11-05T21:09:51.297Z,66.52
2023-11-05T21:11:57.843Z,66.57
2023-11-05T21:14:03.474Z,66.41
2023-11-05T21:16:08.092Z,66.64
2023-11-05T21:18:11.180Z,66.62
2023-11-05T21:20:13.952Z,66.38
2023-11-05T21:22:17.577Z,66.48
2023-11-05T21:24:20.295Z,66.43
2023-11-05T21:26:23.505Z,66.41
2023-11-05T21:28:26.346Z,66.38
2023-11-05T21:30:29.334Z,66.56
2023-11-05T21:32:31.969Z,66.62
2023-11-05T21:34:38.045Z,66.73
2023-11-05T21:36:40.761Z,66.61
2023-11-05T21:38:46.572Z,66.68
2023-11-05T21:40:49.655Z,66.95
2023-11-05T21:42:53.964Z,66.82
2023-11-05T21:44:59.486Z,66.70
2023-11-05T21:47:04.115Z,66.58
2023-11-05T21:49:06.874Z,66.42
2023-11-05T21:51:11.916Z,66.25
2023-11-05T21:53:17.143Z,66.31
2023-11-05T21:55:20.982Z,66.14
2023-11-05T21:57:23.628Z,66.21
2023-11-05T21:59:29.359Z,66.13
2023-11-05T22:01:32.116Z,66.28
2023-11-05T22:03:34.974Z,66.11
2023-11-05T22:05:37.824Z,66.16
2023-11-05T22:07:41.306Z,66.13
2023-11-05T22:09:43.957Z,66.13
2023-11-05T22:11:49.663Z,66.22
2023-11-05T22:13:52.985Z,66.07
2023-11-05T22:15:58.622Z,65.96
2023-11-05T22:18:01.401Z,66.27
2023-11-05T22:20:07.674Z,66.38
2023-11-05T22:22:12.107Z,66.65
2023-11-05T22:24:17.508Z,66.72
2023-11-05T22:26:20.352Z,66.67
2023-11-05T22:28:22.953Z,66.82
2023-11-05T22:30:26.223Z,66.73
2023-11-05T22:32:28.993Z,66.75
2023-11-05T22:34:31.777Z,66.72
2023-11-05T22:36:35.664Z,66.80
2023-11-05T22:38:38.607Z,67.01
2023-11-05T22:40:44.171Z,67.13
2023-11-05T22:42:47.040Z,66.90
2023-11-05T22:44:49.637Z,67.09
2023-11-05T22:46:52.226Z,67.12
2023-11-05T22:48:55.478Z,67.08
2023-11-05T22:50:58.475Z,67.32
2023-11-05T22:53:01.271Z,67.37
2023-11-05T22:55:04.926Z,67.14
2023-11-05T22:57:07.784Z,67.24
2023-11-05T22:59:14.477Z,67.33
2023-11-05T23:01:19.532Z,67.21
2023-11-05T23:03:24.349Z,66.95
2023-11-05T23:05:27.463Z,66.99
2023-11-05T23:07:30.289Z,66.96
2023-11-05T23:09:32.907Z,67.13
2023-11-05T23:11:37.028Z,67.12
2023-11-05T23:13:40.491Z,67.06
2023-11-05T23:15:43.271Z,67.24
2023-11-05T23:17:46.465Z,67.53
2023-11-05T23:19:50.711Z,67.66
2023-11-05T23:21:54.265Z,67.78
2023-11-05T23:23:58.384Z,68.09
2023-11-05T23:26:02.776Z,68.29
2023-11-05T23:28:05.775Z,68.30
2023-11-05T23:30:09.150Z,68.29
2023-11-05T23:32:12.569Z,68.52
2023-11-05T23:34:15.101Z,68.50
2023-11-05T23:36:17.803Z,68.62
2023-11-05T23:38:20.722Z,68.65
2023-11-05T23:40:23.437Z,68.70
2023-11-05T23:42:26.055Z,68.69
2023-11-05T23:44:28.709Z,68.67
2023-11-05T23:46:31.351Z,68.59
2023-11-05T23:48:34.290Z,68.84
2023-11-05T23:50:37.971Z,68.71
2023-11-05T23:52:41.325Z,68.63
2023-11-05T23:54:44.469Z,68.74
2023-11-05T23:56:48.959Z,68.79
2023-11-05T23:58:51.648Z,68.42
